• Join FlightAware (Why Join?)
  • Login
  • US Flag 
06:16AM EDT


 

Airport Tracker/Info


-or-


 

Live Flight TrackerFlight Track Log ✈ DAL1236 ✈ 12-May-2013 ✈ KPNS - KATL

Flight Track Log - Related Links

Times and Time Zones

All times are in EDT time to prevent confusion due to time zone crossing. See the DAL1236 flight status page for this flight to view local times or setup timezone preferences in your user account.

Time Position Orientation Groundspeed Altitude Reporting Facility
EDT Latitude Longitude Course Direction KTS MPH feet Rate Location/Type
07:41PM 30.5008 -87.1958 24° Northeast 153 176 1,300  Level Jacksonville Center
07:42PM 30.5364 -87.1878 11° North 220 253 2,200 2,100 Climbing Jacksonville Center
07:43PM 30.5981 -87.1567 23° Northeast 260 299 5,000 2,580 Climbing Jacksonville Center
07:44PM 30.7701 -87.0266 16° North  Level FlightAware Approximate
07:44PM 30.6933 -87.1128 22° Northeast 281 323 8,500  Level Jacksonville Center
07:45PM 30.8753 -86.9860 25° Northeast  Level FlightAware Approximate
07:45PM 30.7681 -87.0678 27° Northeast 286 329 10,600  Level Jacksonville Center
07:46PM 30.9755 -86.9303 25° Northeast  Level FlightAware Approximate
07:46PM 30.8494 -87.0011 35° Northeast 311 358 11,900  Level Jacksonville Center
07:47PM 31.0768 -86.8769 24° Northeast  Level FlightAware Approximate
07:47PM 30.9436 -86.9278 34° Northeast 363 418 14,100  Level Jacksonville Center
07:48PM 31.0464 -86.8447 35° Northeast 393 452 16,800 2,220 Climbing Jacksonville Center
07:49PM 31.1469 -86.7664 34° Northeast 412 474 18,600 1,800 Climbing Jacksonville Center
07:50PM 31.2519 -86.6833 34° Northeast 434 499 20,400 1,740 Climbing Jacksonville Center
07:53PM 31.5225 -86.4628 35° Northeast 470 541 24,700 1,560 Climbing Atlanta Center
07:54PM 31.6350 -86.3706 35° Northeast 476 548 26,000 1,140 Climbing Atlanta Center
07:55PM 31.7450 -86.2783 35° Northeast 476 548 27,000 480 Climbing Atlanta Center
07:56PM 31.8594 -86.1881 34° Northeast 482 555 27,000  Level Atlanta Center
07:57PM 31.9717 -86.0931 36° Northeast 489 563 27,000  Level Atlanta Center
07:58PM 32.0711 -86.0119 35° Northeast 489 563 27,000  Level Atlanta Center
07:59PM 32.1853 -85.9114 37° Northeast 494 568 27,000  Level Atlanta Center
08:00PM 32.2953 -85.8153 36° Northeast 494 568 27,000  Level Atlanta Center
08:01PM 32.4200 -85.7047 37° Northeast 496 571 27,000 -600 Level Atlanta Center
08:02PM 32.5319 -85.6058 37° Northeast 501 577 25,800 -1,320 Descending Atlanta Center
08:03PM 32.6333 -85.5114 38° Northeast 487 560 24,400 -1,920 Descending Atlanta Center
08:04PM 32.7367 -85.4242 35° Northeast 466 536 22,000 -2,460 Descending Atlanta Center
08:05PM 32.8356 -85.3367 37° Northeast 452 520 19,500 -2,520 Descending Atlanta Center
08:06PM 32.9325 -85.2492 37° Northeast 440 506 17,000 -2,580 Descending Atlanta Center
08:07PM 33.0272 -85.1686 35° Northeast 435 501 14,400 -1,500 Descending Atlanta Center
08:08PM 33.1178 -85.0906 36° Northeast 411 473 14,000 -240 Descending Atlanta Center
08:09PM 33.2061 -85.0022 40° Northeast 411 473 14,000  Level Atlanta Center
08:10PM 33.2797 -84.9011 49° Northeast 411 473 14,000 -540 Level Atlanta Center
08:11PM 33.3556 -84.7972 49° Northeast 411 473 13,000 -1,200 Descending Atlanta Center
08:11PM 33.4000 -84.7333 50° Northeast 400 460 12,200 -720 Descending Atlanta TRACON
08:12PM 33.4833 -84.6833 27° Northeast 386 444 12,000 -180 Descending Atlanta TRACON
08:13PM 33.5833 -84.6167 29° Northeast 395 455 11,900  Descending Atlanta TRACON
08:14PM 33.6333 -84.5167 59° Northeast 328 377 12,000 -300 Climbing Atlanta TRACON
08:15PM 33.6833 -84.4333 54° Northeast 332 382 11,400 -1,620 Descending Atlanta TRACON
08:16PM 33.7167 -84.3667 59° Northeast 253 291 8,900 -2,460 Descending Atlanta TRACON
08:18PM 33.7333 -84.2667 79° East 251 289 6,300 -2,340 Descending Atlanta TRACON
08:18PM 33.6833 -84.2333 151° Southeast 240 276 4,200 -2,340 Descending Atlanta TRACON